Time;durP1;ratioP1;P1;durP2;ratioP2;P2;SDS_P1;SDS_P2;PMS_P1;PMS_P2;Temp;Humidity;BMP_temperature;BMP_pressure;BME280_temperature;BME280_humidity;BME280_pressure;Samples;Min_cycle;Max_cycle;Signal;HPM_P1;HPM_P2
2022/12/18 00:02:13;;;;;;;17.13;9.00;;;;;;;4.91;86.35;95833.22;5006240;28;20053;-82
2022/12/18 00:04:39;;;;;;;17.02;9.80;;;;;;;5.28;86.52;95902.31;5004549;28;20307;-82
2022/12/18 00:07:04;;;;;;;15.32;10.02;;;;;;;5.02;86.60;95878.00;4986991;28;20054;-82
2022/12/18 00:09:30;;;;;;;17.77;10.05;;;;;;;5.19;86.52;95937.84;5003182;28;20054;-82
2022/12/18 00:11:55;;;;;;;23.08;9.60;;;;;;;4.90;86.73;95887.63;5007461;28;20437;-82
2022/12/18 00:14:21;;;;;;;18.63;10.18;;;;;;;5.24;87.70;95944.06;5006502;28;20053;-82
2022/12/18 00:16:46;;;;;;;19.67;10.80;;;;;;;4.64;87.21;95867.72;5010238;28;20048;-82
2022/12/18 00:19:13;;;;;;;18.30;11.45;;;;;;;4.76;87.17;95891.44;5011524;28;20151;-82
2022/12/18 00:21:39;;;;;;;15.65;10.15;;;;;;;5.03;87.29;95960.28;5003678;28;20049;-82
2022/12/18 00:24:05;;;;;;;18.67;11.68;;;;;;;4.99;88.36;95970.44;5011124;28;20419;-82
2022/12/18 00:26:33;;;;;;;27.63;11.55;;;;;;;5.21;87.71;95989.19;5011872;28;20107;-82
2022/12/18 00:29:00;;;;;;;19.33;10.65;;;;;;;5.00;88.13;95969.41;5013142;28;20049;-82
2022/12/18 00:31:26;;;;;;;19.83;12.57;;;;;;;5.15;87.95;95997.16;5017260;28;20079;-82
2022/12/18 00:33:55;;;;;;;21.02;11.73;;;;;;;5.13;87.79;95989.47;4995206;28;20045;-82
2022/12/18 00:36:24;;;;;;;21.13;11.82;;;;;;;4.93;87.38;95952.91;5020045;28;21035;-82
2022/12/18 00:38:49;;;;;;;19.92;12.55;;;;;;;4.83;87.12;95930.78;4986930;28;20484;-82
2022/12/18 00:42:55;;;;;;;18.30;11.00;;;;;;;5.26;86.64;96018.28;5003869;28;20045;-82
2022/12/18 00:44:02;;;;;;;19.42;11.32;;;;;;;5.37;87.31;96008.84;5002082;28;20042;-82
2022/12/18 00:46:28;;;;;;;18.63;10.50;;;;;;;4.63;86.45;95942.31;5009130;28;20120;-82
2022/12/18 00:48:53;;;;;;;17.65;10.23;;;;;;;4.80;86.59;95981.16;5022112;28;20164;-82
2022/12/18 00:51:19;;;;;;;19.98;9.95;;;;;;;3.83;85.88;95825.09;5013145;28;20488;-82
2022/12/18 00:53:44;;;;;;;15.38;10.02;;;;;;;5.00;87.20;96015.91;5011579;28;20466;-82
2022/12/18 00:56:09;;;;;;;20.88;11.18;;;;;;;4.26;86.91;95899.44;5006459;28;20048;-82
2022/12/18 00:58:35;;;;;;;17.67;10.95;;;;;;;4.46;87.30;95920.25;4994503;28;20046;-82
2022/12/18 01:01:00;;;;;;;16.38;10.15;;;;;;;4.48;85.84;95920.03;5002678;28;20500;-82
2022/12/18 01:03:26;;;;;;;21.50;11.27;;;;;;;5.16;86.27;96039.00;5001723;28;20053;-82
2022/12/18 01:05:51;;;;;;;17.20;10.98;;;;;;;4.70;86.05;95973.75;5002802;28;20041;-82
2022/12/18 01:08:16;;;;;;;17.00;9.13;;;;;;;4.44;86.28;95964.28;5017894;28;20617;-82
2022/12/18 01:10:42;;;;;;;17.95;11.02;;;;;;;4.59;86.34;95991.03;4986245;28;20506;-82
2022/12/18 01:13:07;;;;;;;18.55;10.77;;;;;;;4.55;85.79;95986.44;4985739;28;20037;-81
2022/12/18 01:15:33;;;;;;;15.75;9.98;;;;;;;4.66;85.43;96033.81;5003855;28;20084;-82
2022/12/18 01:17:58;;;;;;;21.92;11.18;;;;;;;4.37;86.23;95974.06;5004246;28;20041;-82
2022/12/18 01:20:24;;;;;;;20.35;11.82;;;;;;;4.53;85.95;96012.91;5005861;28;20037;-81
2022/12/18 01:22:49;;;;;;;20.67;12.38;;;;;;;4.62;86.02;96011.63;5022170;28;20565;-81
2022/12/18 01:25:14;;;;;;;21.55;12.75;;;;;;;4.35;86.26;95986.59;5004333;28;20052;-82
2022/12/18 01:27:40;;;;;;;18.98;11.18;;;;;;;4.71;85.66;96077.84;4997203;28;20065;-82
2022/12/18 01:30:06;;;;;;;22.60;10.82;;;;;;;4.69;86.41;96063.31;5012491;28;20048;-82
2022/12/18 01:32:32;;;;;;;26.67;12.15;;;;;;;4.20;86.20;95968.53;5011792;28;20049;-82
2022/12/18 01:34:58;;;;;;;23.70;12.63;;;;;;;4.16;86.45;95971.81;5014606;28;20037;-82
2022/12/18 01:37:24;;;;;;;22.23;13.15;;;;;;;4.76;86.14;96059.59;5002556;28;20081;-82
2022/12/18 01:39:49;;;;;;;19.42;11.77;;;;;;;4.16;86.04;95985.75;4988969;28;20054;-82
2022/12/18 01:42:16;;;;;;;22.88;12.55;;;;;;;4.02;86.32;95970.31;4998628;28;20439;-82
2022/12/18 01:45:00;;;;;;;27.65;12.88;;;;;;;4.50;86.73;96072.97;5019038;28;20550;-82
2022/12/18 01:47:46;;;;;;;21.73;12.93;;;;;;;4.59;87.32;96074.28;5021150;28;20144;-82
2022/12/18 01:50:15;;;;;;;23.30;13.20;;;;;;;4.56;86.08;96082.63;5008442;28;20045;-82
2022/12/18 01:52:43;;;;;;;20.92;12.60;;;;;;;4.33;86.18;96077.94;5021875;28;20045;-82
2022/12/18 01:55:10;;;;;;;23.13;13.95;;;;;;;3.59;86.35;95973.59;5003473;28;20602;-82
2022/12/18 01:57:37;;;;;;;21.42;12.82;;;;;;;3.72;86.72;96001.59;5000354;28;20045;-82
2022/12/18 02:00:14;;;;;;;23.98;14.15;;;;;;;4.14;86.58;96066.53;5012045;28;20595;-82
2022/12/18 02:02:41;;;;;;;21.10;12.27;;;;;;;3.44;85.98;95954.69;5018015;28;20053;-82
2022/12/18 02:05:08;;;;;;;26.33;12.68;;;;;;;4.23;87.19;96073.13;5002061;28;20136;-82
2022/12/18 02:07:36;;;;;;;21.65;12.25;;;;;;;4.12;86.16;96079.06;4996760;28;20921;-82
2022/12/18 02:10:19;;;;;;;23.08;12.60;;;;;;;3.39;86.74;95980.75;4985450;28;20084;-82
2022/12/18 02:12:57;;;;;;;23.83;13.25;;;;;;;4.13;87.19;96098.22;5000836;28;20038;-82
2022/12/18 02:15:31;;;;;;;20.52;11.60;;;;;;;4.15;86.12;96088.34;5008844;28;20085;-82
2022/12/18 02:18:03;;;;;;;21.60;11.02;;;;;;;3.77;86.20;96055.03;5023501;28;20109;-82
2022/12/18 02:20:52;;;;;;;22.00;11.70;;;;;;;4.12;86.64;96105.31;5005596;28;20037;-82
2022/12/18 02:24:05;;;;;;;22.85;11.40;;;;;;;4.07;86.52;96104.34;5022055;28;20049;-82
2022/12/18 02:26:37;;;;;;;21.92;11.23;;;;;;;3.71;87.02;96048.00;4943737;29;20098;-82
2022/12/18 02:29:13;;;;;;;23.67;11.43;;;;;;;3.37;86.32;96035.22;4943362;29;20050;-82
2022/12/18 02:31:44;;;;;;;20.92;11.23;;;;;;;3.35;87.19;96017.09;4985138;28;20217;-82
2022/12/18 02:34:11;;;;;;;21.80;11.77;;;;;;;2.95;86.45;95960.56;5012282;28;20050;-82
2022/12/18 02:36:42;;;;;;;21.02;11.65;;;;;;;3.49;87.16;96038.81;5012648;28;20575;-82
2022/12/18 02:39:11;;;;;;;18.55;11.10;;;;;;;3.91;86.75;96125.81;5021107;28;20084;-82
2022/12/18 02:41:38;;;;;;;20.70;11.32;;;;;;;3.87;86.93;96112.31;5021909;28;20132;-82
2022/12/18 02:44:09;;;;;;;22.08;11.07;;;;;;;3.92;86.42;96140.53;5021080;28;20083;-82
2022/12/18 02:46:39;;;;;;;22.65;11.65;;;;;;;3.93;87.06;96139.53;5000235;28;20054;-82
2022/12/18 02:49:43;;;;;;;18.30;11.55;;;;;;;3.93;86.65;96129.03;4999562;28;20176;-82
2022/12/18 02:52:33;;;;;;;19.73;10.82;;;;;;;3.85;86.63;96128.25;4952846;28;20049;-82
2022/12/18 02:55:08;;;;;;;24.23;11.85;;;;;;;3.16;87.56;96025.81;4996242;28;20053;-82
2022/12/18 02:57:46;;;;;;;21.52;11.90;;;;;;;3.10;87.44;96027.44;5019889;28;20502;-82
2022/12/18 03:00:18;;;;;;;25.20;13.02;;;;;;;3.71;87.76;96123.28;5015130;28;20068;-82
2022/12/18 03:02:50;;;;;;;19.60;11.27;;;;;;;3.71;87.77;96123.28;5002382;28;20040;-82
2022/12/18 03:05:30;;;;;;;19.77;11.30;;;;;;;3.61;87.53;96109.78;5015838;28;20044;-81
2022/12/18 03:08:00;;;;;;;20.05;11.48;;;;;;;3.18;87.55;96070.97;4998548;28;20428;-82
2022/12/18 03:10:30;;;;;;;24.63;13.70;;;;;;;3.59;87.78;96135.41;5008741;28;20192;-82
2022/12/18 03:13:20;;;;;;;22.52;12.65;;;;;;;3.67;87.66;96125.50;5028876;28;20942;-82
2022/12/18 03:15:49;;;;;;;23.20;12.55;;;;;;;3.15;87.24;96052.22;5005969;28;20463;-82
2022/12/18 03:18:25;;;;;;;22.90;12.70;;;;;;;3.25;87.06;96058.66;5001925;28;20083;-82
2022/12/18 03:20:55;;;;;;;20.30;10.60;;;;;;;3.48;86.24;96090.47;5000230;28;20033;-83
2022/12/18 03:23:26;;;;;;;17.17;11.45;;;;;;;3.81;86.12;96148.03;5003618;28;20034;-83
2022/12/18 03:25:56;;;;;;;20.40;11.82;;;;;;;3.63;86.31;96095.44;5023245;28;20039;-83
2022/12/18 03:28:22;;;;;;;25.83;12.07;;;;;;;3.61;85.79;96091.41;5016253;28;20112;-83
2022/12/18 03:30:55;;;;;;;20.52;11.18;;;;;;;3.64;85.77;96098.88;5003717;28;20066;-83
2022/12/18 03:33:28;;;;;;;19.77;11.73;;;;;;;4.08;85.82;96166.31;5014772;28;20056;-83
2022/12/18 03:35:54;;;;;;;25.17;12.60;;;;;;;3.99;85.12;96146.56;4992297;28;20048;-83
2022/12/18 03:38:20;;;;;;;24.13;12.85;;;;;;;3.50;85.50;96074.53;5017872;28;20593;-81
2022/12/18 03:41:14;;;;;;;24.48;12.43;;;;;;;4.27;85.31;96170.69;5009074;28;20033;-83
2022/12/18 03:44:04;;;;;;;26.35;11.45;;;;;;;4.25;83.84;96173.53;4986093;28;20073;-83
2022/12/18 03:46:48;;;;;;;26.27;12.13;;;;;;;4.08;83.06;96179.44;4988936;28;20042;-82
2022/12/18 03:49:19;;;;;;;18.30;10.13;;;;;;;3.97;81.84;96193.22;4992986;28;20053;-81
2022/12/18 03:52:10;;;;;;;22.70;11.48;;;;;;;2.60;83.48;95975.75;5016696;28;20048;-82
2022/12/18 03:54:36;;;;;;;20.02;11.82;;;;;;;3.70;82.86;96153.13;5006931;28;20050;-82
2022/12/18 03:57:24;;;;;;;21.77;11.25;;;;;;;3.48;83.20;96136.84;5019737;28;20079;-81
2022/12/18 03:59:55;;;;;;;22.40;11.00;;;;;;;2.94;82.83;96059.34;5005076;28;20037;-82
2022/12/18 04:02:22;;;;;;;21.85;11.98;;;;;;;3.26;82.58;96094.34;5000993;28;20041;-82
2022/12/18 04:04:52;;;;;;;19.33;11.15;;;;;;;3.42;82.89;96156.84;4992277;28;20087;-81
2022/12/18 04:07:18;;;;;;;24.13;11.88;;;;;;;2.95;82.90;96102.06;4995365;28;20487;-81
2022/12/18 04:09:45;;;;;;;19.05;11.40;;;;;;;3.64;83.22;96194.13;5012125;28;20041;-81
2022/12/18 04:12:11;;;;;;;18.23;11.00;;;;;;;2.94;82.64;96064.56;5011123;28;20038;-82
2022/12/18 04:14:36;;;;;;;22.60;11.32;;;;;;;3.19;83.57;96104.06;5000884;28;20443;-83
2022/12/18 04:17:02;;;;;;;19.27;11.15;;;;;;;3.82;82.77;96204.75;5014665;28;20045;-82
2022/12/18 04:19:28;;;;;;;19.77;11.35;;;;;;;3.20;82.06;96110.91;4991096;28;20129;-82
2022/12/18 04:21:54;;;;;;;22.58;11.27;;;;;;;3.45;81.94;96163.47;5003119;28;20125;-84
2022/12/18 04:24:19;;;;;;;21.95;11.82;;;;;;;2.92;81.63;96091.97;5002357;28;20068;-82
2022/12/18 04:26:45;;;;;;;28.38;13.10;;;;;;;3.00;81.73;96095.19;5021478;28;20045;-82
2022/12/18 04:29:10;;;;;;;23.13;12.32;;;;;;;2.95;81.05;96112.53;4985435;28;20077;-81
2022/12/18 04:31:36;;;;;;;27.20;13.25;;;;;;;3.61;81.83;96220.75;5022209;28;20076;-82
2022/12/18 04:34:01;;;;;;;25.23;13.45;;;;;;;3.74;81.28;96238.28;5004732;28;20166;-82
2022/12/18 04:36:27;;;;;;;28.90;14.80;;;;;;;3.02;81.82;96108.09;5001454;28;20056;-82
2022/12/18 04:38:52;;;;;;;28.67;13.38;;;;;;;3.90;81.45;96235.22;4989848;28;20041;-82
2022/12/18 04:41:18;;;;;;;23.42;13.25;;;;;;;3.27;80.36;96163.31;5015901;28;20084;-82
2022/12/18 04:43:46;;;;;;;21.67;13.23;;;;;;;3.61;80.74;96226.00;5000021;28;20564;-82
2022/12/18 04:46:12;;;;;;;24.30;12.85;;;;;;;3.39;79.98;96219.38;5010866;28;20052;-82
2022/12/18 04:48:38;;;;;;;28.50;14.50;;;;;;;2.27;80.57;96038.63;5002498;28;20044;-82
2022/12/18 04:51:04;;;;;;;30.77;13.45;;;;;;;3.17;79.37;96200.44;4992356;28;20050;-82
2022/12/18 04:53:30;;;;;;;29.75;15.75;;;;;;;2.84;80.35;96129.66;5014088;28;20060;-82
2022/12/18 04:56:10;;;;;;;28.77;15.43;;;;;;;3.41;80.17;96246.19;5003822;28;20041;-82
2022/12/18 04:58:37;;;;;;;27.13;14.05;;;;;;;3.51;79.92;96272.81;5004785;28;20269;-82
2022/12/18 05:01:03;;;;;;;22.67;13.38;;;;;;;3.01;79.27;96200.81;5020087;28;20067;-82
2022/12/18 05:03:29;;;;;;;27.98;15.07;;;;;;;3.13;78.96;96214.94;5003312;28;20528;-82
2022/12/18 05:05:54;;;;;;;27.67;15.20;;;;;;;3.17;79.20;96244.19;5003998;28;20483;-82
2022/12/18 05:08:20;;;;;;;39.60;17.48;;;;;;;3.04;78.97;96203.88;5000622;28;20527;-82
2022/12/18 05:10:46;;;;;;;29.55;14.73;;;;;;;3.49;78.88;96277.47;5004628;28;20487;-82
2022/12/18 05:13:11;;;;;;;30.17;15.65;;;;;;;3.21;78.46;96251.44;4997395;28;20046;-82
2022/12/18 05:15:36;;;;;;;29.50;15.27;;;;;;;3.19;78.98;96252.66;5008819;28;20049;-81
2022/12/18 05:18:03;;;;;;;34.42;17.13;;;;;;;3.15;79.06;96254.06;5000489;28;20050;-81
2022/12/18 05:20:29;;;;;;;32.13;16.10;;;;;;;2.94;79.77;96211.31;5020181;28;20060;-82
2022/12/18 05:22:54;;;;;;;32.80;16.90;;;;;;;3.10;79.49;96245.00;5008645;28;20049;-82
2022/12/18 05:25:21;;;;;;;34.47;15.45;;;;;;;3.08;79.26;96275.00;4996300;28;20439;-81
2022/12/18 05:27:47;;;;;;;33.40;17.45;;;;;;;3.16;80.04;96308.09;5002285;28;20102;-82
2022/12/18 05:30:13;;;;;;;34.53;16.55;;;;;;;2.60;80.01;96235.81;4999482;28;20133;-82
2022/12/18 05:32:39;;;;;;;34.10;16.92;;;;;;;2.56;80.38;96203.19;5000165;28;20799;-81
2022/12/18 05:35:07;;;;;;;28.73;16.33;;;;;;;3.06;79.88;96304.03;4997827;28;20148;-82
2022/12/18 05:37:33;;;;;;;33.88;16.75;;;;;;;2.68;80.42;96263.63;4984727;28;20197;-82
2022/12/18 05:39:58;;;;;;;31.88;16.17;;;;;;;3.01;80.06;96316.94;5020288;28;20678;-82
2022/12/18 05:42:24;;;;;;;38.10;17.50;;;;;;;2.40;79.86;96224.50;5002259;28;20122;-82
2022/12/18 05:44:49;;;;;;;34.95;15.85;;;;;;;2.62;79.69;96273.09;4999701;28;20428;-82
2022/12/18 05:47:15;;;;;;;38.97;16.92;;;;;;;2.30;78.83;96237.13;4982408;28;20448;-82
2022/12/18 05:49:40;;;;;;;33.83;17.17;;;;;;;2.06;79.18;96186.09;5009476;28;20050;-82
2022/12/18 05:52:06;;;;;;;36.53;17.75;;;;;;;2.55;79.91;96251.31;4999840;28;20589;-82
2022/12/18 05:54:31;;;;;;;36.15;17.08;;;;;;;3.12;78.65;96328.66;4992958;28;20045;-82
2022/12/18 05:56:57;;;;;;;36.00;17.20;;;;;;;2.42;78.50;96206.78;5009861;28;20053;-82
2022/12/18 05:59:23;;;;;;;32.33;16.17;;;;;;;3.16;78.29;96336.94;5000564;28;20061;-82
2022/12/18 06:01:48;;;;;;;33.80;17.77;;;;;;;2.47;77.70;96237.59;4997152;28;20045;-82
2022/12/18 06:04:14;;;;;;;32.03;16.85;;;;;;;2.76;77.97;96300.13;4998499;28;20053;-82
2022/12/18 06:06:39;;;;;;;33.45;17.02;;;;;;;2.89;78.66;96318.53;5001172;28;20056;-81
2022/12/18 06:09:09;;;;;;;33.60;17.48;;;;;;;2.54;78.76;96270.66;5000230;28;20045;-82
2022/12/18 06:11:36;;;;;;;42.05;17.10;;;;;;;2.24;78.90;96243.97;5016722;28;20056;-82
2022/12/18 06:14:03;;;;;;;35.10;17.98;;;;;;;2.61;78.40;96305.53;5002615;28;20041;-82
2022/12/18 06:16:29;;;;;;;38.92;17.83;;;;;;;2.50;78.54;96268.63;5002898;28;20068;-82
2022/12/18 06:18:59;;;;;;;31.88;17.25;;;;;;;2.89;78.22;96334.25;5000082;28;20187;-82
2022/12/18 06:21:25;;;;;;;38.58;18.90;;;;;;;2.72;78.56;96304.16;4999493;28;20570;-82
2022/12/18 06:23:50;;;;;;;38.25;18.90;;;;;;;2.37;78.32;96251.06;5002162;28;20041;-82
2022/12/18 06:26:15;;;;;;;38.55;19.63;;;;;;;2.78;78.29;96326.94;4993005;28;20046;-82
2022/12/18 06:28:41;;;;;;;35.22;17.50;;;;;;;2.65;77.83;96291.06;5018474;28;20383;-82
2022/12/18 06:31:08;;;;;;;37.55;18.27;;;;;;;2.95;78.04;96362.28;5020602;28;20511;-82
2022/12/18 06:33:34;;;;;;;36.58;17.92;;;;;;;2.71;77.36;96313.84;5013346;28;20055;-82
2022/12/18 06:36:05;;;;;;;36.65;18.27;;;;;;;2.41;78.18;96294.19;5006132;28;20041;-82
2022/12/18 06:38:32;;;;;;;;;;;;;;;2.96;78.08;96384.06;4998126;28;20141;-82
2022/12/18 06:40:57;;;;;;;36.47;18.63;;;;;;;2.31;78.59;96291.91;5000610;28;19932;-82
2022/12/18 06:43:23;;;;;;;35.85;17.45;;;;;;;2.99;78.34;96383.66;4996821;28;20045;-83
2022/12/18 06:45:52;;;;;;;40.90;18.88;;;;;;;3.00;78.08;96386.06;4999597;28;20058;-83
2022/12/18 06:48:19;;;;;;;37.08;18.60;;;;;;;3.13;78.24;96395.78;5006437;28;20152;-83
2022/12/18 06:50:45;;;;;;;40.90;18.17;;;;;;;2.84;77.43;96370.69;5017810;28;20050;-83
2022/12/18 06:53:11;;;;;;;39.35;18.77;;;;;;;2.68;77.63;96319.44;4999305;28;20045;-83
2022/12/18 06:55:36;;;;;;;32.42;17.17;;;;;;;3.17;77.10;96393.59;5001600;28;20336;-82
2022/12/18 06:58:01;;;;;;;38.55;18.50;;;;;;;2.83;76.67;96355.16;5022415;28;20048;-83
2022/12/18 07:00:27;;;;;;;33.10;17.10;;;;;;;2.77;76.84;96335.81;5017208;28;20048;-83
2022/12/18 07:02:52;;;;;;;32.75;17.00;;;;;;;2.95;75.96;96362.28;5017608;28;20068;-82
2022/12/18 07:05:18;;;;;;;34.60;16.58;;;;;;;2.59;74.90;96310.19;4997810;28;20080;-82
2022/12/18 07:07:43;;;;;;;32.08;16.63;;;;;;;2.43;74.59;96276.47;5008849;28;20050;-81
2022/12/18 07:10:09;;;;;;;34.95;17.15;;;;;;;2.85;74.66;96332.22;5019791;28;20383;-82
2022/12/18 07:12:35;;;;;;;31.58;16.08;;;;;;;3.26;73.64;96423.88;5004901;28;20056;-82
2022/12/18 07:15:01;;;;;;;32.53;16.08;;;;;;;3.12;73.91;96422.22;5014278;28;20057;-82
2022/12/18 07:17:27;;;;;;;34.85;17.30;;;;;;;2.30;74.81;96292.09;5005984;28;20068;-82
2022/12/18 07:19:52;;;;;;;29.98;16.13;;;;;;;2.97;74.58;96419.75;5002517;28;20045;-82
2022/12/18 07:22:17;;;;;;;33.75;17.40;;;;;;;2.57;75.32;96340.19;5017316;28;20099;-82
2022/12/18 07:24:43;;;;;;;35.05;17.40;;;;;;;2.14;75.18;96264.44;5005141;28;20037;-82
2022/12/18 07:27:08;;;;;;;37.72;19.10;;;;;;;2.74;75.21;96365.03;5003193;28;20089;-82
2022/12/18 07:29:34;;;;;;;39.10;18.48;;;;;;;2.76;75.58;96389.19;4985987;28;20038;-82
2022/12/18 07:31:59;;;;;;;37.15;19.02;;;;;;;2.25;75.18;96324.09;5003611;28;20046;-81
2022/12/18 07:34:25;;;;;;;38.30;19.25;;;;;;;2.73;75.71;96418.44;5001993;28;20189;-82
2022/12/18 07:36:50;;;;;;;40.38;19.55;;;;;;;2.06;75.91;96314.31;4990178;28;20034;-82
2022/12/18 07:39:15;;;;;;;38.40;20.08;;;;;;;2.12;75.80;96336.31;5013200;28;20037;-82
2022/12/18 07:41:45;;;;;;;46.60;21.77;;;;;;;2.43;76.32;96375.97;4994267;28;20075;-82
2022/12/18 07:44:11;;;;;;;43.78;19.95;;;;;;;2.84;76.37;96435.38;5012293;28;20069;-82
2022/12/18 07:46:37;;;;;;;40.15;19.02;;;;;;;1.68;76.40;96279.09;5023364;28;20064;-82
2022/12/18 07:49:03;;;;;;;48.25;21.13;;;;;;;2.29;77.64;96385.53;5005135;28;20382;-82
2022/12/18 07:51:28;;;;;;;51.92;21.60;;;;;;;2.28;77.41;96351.72;4990067;28;20169;-82
2022/12/18 07:53:53;;;;;;;46.22;20.98;;;;;;;2.41;77.12;96377.16;5037140;28;20532;-82
2022/12/18 07:56:20;;;;;;;43.55;22.35;;;;;;;2.44;77.22;96379.41;5004732;28;20058;-83
2022/12/18 07:58:46;;;;;;;46.17;22.15;;;;;;;2.59;77.33;96390.56;5001104;28;20053;-82
2022/12/18 08:01:12;;;;;;;45.38;22.10;;;;;;;2.36;77.35;96385.59;5002837;28;20486;-82
2022/12/18 08:03:40;;;;;;;42.70;21.58;;;;;;;2.09;77.15;96342.72;5002212;28;20112;-82
2022/12/18 08:06:07;;;;;;;49.67;22.85;;;;;;;2.95;77.49;96464.47;4985787;28;20046;-82
2022/12/18 08:08:33;;;;;;;45.25;21.27;;;;;;;1.69;77.23;96281.50;4985849;28;20042;-82
2022/12/18 08:10:59;;;;;;;48.47;22.75;;;;;;;2.42;77.41;96400.53;5000876;28;20049;-83
2022/12/18 08:13:26;;;;;;;39.03;21.67;;;;;;;2.65;77.45;96439.53;5002323;28;20152;-82
2022/12/18 08:16:06;;;;;;;50.50;23.13;;;;;;;2.57;77.84;96448.34;5011190;28;20531;-83
2022/12/18 08:18:33;;;;;;;43.00;22.55;;;;;;;2.94;77.83;96498.75;5011052;28;20103;-83
2022/12/18 08:21:08;;;;;;;44.83;22.55;;;;;;;2.93;77.82;96503.16;5014880;28;20037;-82
2022/12/18 08:23:33;;;;;;;49.63;23.30;;;;;;;2.41;77.77;96416.44;5037351;28;20048;-82
2022/12/18 08:25:59;;;;;;;45.55;22.35;;;;;;;2.55;77.35;96415.50;4992822;28;20399;-83
2022/12/18 08:28:24;;;;;;;43.50;22.60;;;;;;;3.03;76.18;96494.97;5017942;28;20123;-82
2022/12/18 08:30:51;;;;;;;45.85;21.60;;;;;;;2.66;77.03;96428.06;5003693;28;20057;-83
2022/12/18 08:33:17;;;;;;;40.97;22.02;;;;;;;2.57;76.37;96430.03;5002376;28;20050;-82
2022/12/18 08:35:42;;;;;;;46.25;21.20;;;;;;;2.51;76.00;96422.13;5000169;28;20120;-83
2022/12/18 08:38:08;;;;;;;46.15;22.33;;;;;;;3.15;75.52;96500.44;4985188;28;20048;-82
2022/12/18 08:40:33;;;;;;;44.88;21.00;;;;;;;2.94;75.15;96489.06;4986357;28;20038;-82
2022/12/18 08:45:43;;;;;;;47.53;23.00;;;;;;;2.41;74.96;96392.84;5013193;28;20201;-83
2022/12/18 08:48:08;;;;;;;43.88;22.17;;;;;;;2.58;75.54;96421.16;5001230;28;20856;-82
2022/12/18 08:50:34;;;;;;;45.63;21.58;;;;;;;3.12;74.62;96509.53;5013254;28;20041;-83
2022/12/18 08:53:00;;;;;;;47.65;20.80;;;;;;;2.63;74.95;96441.53;5003719;28;20055;-83
2022/12/18 08:55:25;;;;;;;42.97;20.98;;;;;;;2.91;74.70;96486.81;5004406;28;20195;-83
2022/12/18 08:57:51;;;;;;;45.22;20.88;;;;;;;3.15;74.57;96519.59;5021801;28;20144;-82
2022/12/18 09:00:16;;;;;;;41.42;21.33;;;;;;;2.45;74.04;96449.06;5006894;28;20575;-83
2022/12/18 09:02:42;;;;;;;41.47;20.27;;;;;;;2.08;74.05;96353.38;5000386;28;20053;-82
2022/12/18 09:05:07;;;;;;;52.67;21.05;;;;;;;2.37;73.86;96373.28;5001053;28;20049;-83
2022/12/18 09:07:33;;;;;;;43.70;20.95;;;;;;;2.49;73.64;96401.38;5020228;28;20416;-82
2022/12/18 09:09:58;;;;;;;41.20;19.45;;;;;;;2.85;72.34;96481.56;5000772;28;20053;-82
2022/12/18 09:12:24;;;;;;;39.50;18.55;;;;;;;2.89;72.23;96469.69;5000476;28;20073;-82
2022/12/18 09:14:49;;;;;;;41.08;18.50;;;;;;;3.13;72.21;96510.34;5005286;28;20060;-82
2022/12/18 09:17:14;;;;;;;40.45;19.98;;;;;;;2.88;71.95;96481.97;5019523;28;20053;-82
2022/12/18 09:19:40;;;;;;;39.50;19.08;;;;;;;3.04;71.65;96509.69;4998362;28;20499;-82
2022/12/18 09:22:05;;;;;;;43.78;19.48;;;;;;;3.15;71.62;96505.69;5006281;28;20049;-82
2022/12/18 09:24:31;;;;;;;35.47;18.25;;;;;;;2.85;71.21;96456.16;5021325;28;20041;-82
2022/12/18 09:26:56;;;;;;;39.05;17.67;;;;;;;2.49;70.67;96380.44;5013010;28;20450;-82
2022/12/18 09:29:22;;;;;;;33.70;16.48;;;;;;;3.16;70.45;96515.19;5010857;28;20251;-82
2022/12/18 09:31:47;;;;;;;33.10;17.33;;;;;;;3.01;70.61;96510.06;5010049;28;20135;-82
2022/12/18 09:34:13;;;;;;;42.25;19.77;;;;;;;3.12;71.04;96506.09;5001375;28;20168;-82
2022/12/18 09:36:38;;;;;;;36.38;18.02;;;;;;;3.08;70.67;96503.84;5000046;28;20053;-82
2022/12/18 09:39:04;;;;;;;36.20;17.73;;;;;;;2.36;71.32;96395.25;4995858;28;20053;-82
2022/12/18 09:41:53;;;;;;;35.85;18.02;;;;;;;2.52;70.52;96428.97;4999122;28;20060;-82
2022/12/18 09:44:32;;;;;;;35.42;17.95;;;;;;;2.81;70.67;96467.22;5002736;28;20052;-82
2022/12/18 09:47:06;;;;;;;45.45;20.13;;;;;;;3.36;71.03;96522.13;5021730;28;20049;-82
2022/12/18 09:49:37;;;;;;;36.25;17.45;;;;;;;2.44;70.60;96374.16;4999319;28;20042;-82
2022/12/18 09:52:15;;;;;;;43.60;20.15;;;;;;;2.93;70.59;96436.84;5016680;28;20060;-82
2022/12/18 09:54:45;;;;;;;35.85;17.60;;;;;;;3.26;70.45;96465.81;5019633;28;20495;-82
2022/12/18 09:57:16;;;;;;;43.80;20.35;;;;;;;3.36;70.11;96482.78;5009201;28;20060;-82
2022/12/18 09:59:47;;;;;;;38.58;18.08;;;;;;;2.88;69.73;96405.19;5015911;28;20137;-81
2022/12/18 10:02:24;;;;;;;36.13;17.75;;;;;;;3.71;69.72;96499.25;4983844;28;20050;-81
2022/12/18 10:05:03;;;;;;;34.00;16.73;;;;;;;3.75;69.31;96510.16;5002067;28;20056;-84
2022/12/18 10:07:46;;;;;;;36.72;17.15;;;;;;;3.12;68.32;96422.22;5000265;28;20156;-82
2022/12/18 10:10:19;;;;;;;34.97;15.73;;;;;;;3.65;67.45;96520.22;5001492;28;20061;-82
2022/12/18 10:13:11;;;;;;;34.20;16.95;;;;;;;3.57;68.10;96520.41;5009809;28;20049;-82
2022/12/18 10:15:44;;;;;;;;;;;;;;;3.54;68.26;96515.53;5006094;28;20061;-82
2022/12/18 10:18:12;;;;;;;37.55;18.05;;;;;;;3.52;68.18;96520.97;4983786;28;19922;-82
2022/12/18 10:20:49;;;;;;;36.53;17.42;;;;;;;3.48;68.31;96509.28;5000785;28;20527;-84
2022/12/18 10:23:32;;;;;;;33.13;14.93;;;;;;;3.56;67.94;96516.16;5002570;28;20397;-82
2022/12/18 10:26:04;;;;;;;34.33;16.13;;;;;;;3.46;68.11;96513.91;5009189;28;20048;-82
2022/12/18 10:28:32;;;;;;;37.42;16.13;;;;;;;3.33;68.04;96503.38;5024355;28;20500;-82
2022/12/18 10:30:58;;;;;;;36.40;16.38;;;;;;;3.31;68.02;96500.94;5000745;28;20546;-82
2022/12/18 10:33:27;;;;;;;33.35;16.55;;;;;;;3.62;68.24;96510.13;5013308;28;20460;-82
2022/12/18 10:35:54;;;;;;;35.55;16.88;;;;;;;3.61;67.92;96519.00;5009182;28;20164;-82
2022/12/18 10:38:25;;;;;;;33.15;15.93;;;;;;;3.62;67.53;96497.81;5009407;28;20555;-82
2022/12/18 10:40:54;;;;;;;38.63;18.38;;;;;;;3.79;67.97;96498.25;5008713;28;20060;-82
2022/12/18 10:43:24;;;;;;;37.33;17.50;;;;;;;3.78;68.00;96512.38;5027883;28;20052;-82
2022/12/18 10:45:58;;;;;;;39.20;17.52;;;;;;;3.87;67.67;96501.50;5010903;28;20076;-83
2022/12/18 10:48:24;;;;;;;36.85;18.00;;;;;;;3.98;68.79;96491.41;5027872;28;20041;-82
2022/12/18 10:50:51;;;;;;;39.70;18.10;;;;;;;3.94;67.55;96484.97;5005868;28;20511;-83
2022/12/18 10:53:25;;;;;;;36.55;18.85;;;;;;;3.50;67.31;96452.19;4999361;28;20037;-83
2022/12/18 10:55:53;;;;;;;35.08;18.25;;;;;;;4.01;67.78;96504.97;5033405;28;20044;-83
2022/12/18 10:58:31;;;;;;;39.80;18.58;;;;;;;3.86;67.94;96509.56;4999956;28;20541;-82
2022/12/18 11:01:07;;;;;;;41.72;19.92;;;;;;;3.95;68.25;96512.84;5005144;28;20042;-83
2022/12/18 11:03:41;;;;;;;39.97;17.95;;;;;;;3.94;68.08;96492.84;5007115;28;20051;-83
2022/12/18 11:06:18;;;;;;;41.58;18.58;;;;;;;3.63;68.46;96438.28;5028738;28;20041;-83
2022/12/18 11:08:58;;;;;;;42.13;19.77;;;;;;;3.51;68.08;96401.31;4990092;28;20041;-82
2022/12/18 11:11:24;;;;;;;38.55;17.33;;;;;;;3.66;67.65;96469.38;5023562;28;20048;-82
2022/12/18 11:14:26;;;;;;;44.28;20.52;;;;;;;3.61;68.07;96435.84;4990996;28;20084;-82
2022/12/18 11:16:53;;;;;;;;;;;;;;;3.99;66.79;96514.03;4990873;28;20092;-82
2022/12/18 11:21:54;;;;;;;38.20;17.38;;;;;;;3.75;67.19;96484.72;5040208;23;20111;-87
2022/12/18 11:24:33;;;;;;;38.15;17.65;;;;;;;3.37;67.24;96413.59;4978898;28;20046;-86
2022/12/18 11:27:03;;;;;;;38.63;18.45;;;;;;;3.85;66.91;96511.38;4992978;28;20046;-85
2022/12/18 11:29:31;;;;;;;40.78;18.98;;;;;;;3.93;67.15;96512.22;4991782;28;20078;-86
2022/12/18 11:32:43;;;;;;;42.72;20.90;;;;;;;3.97;66.75;96508.19;5106488;23;20133;-83
2022/12/18 11:35:19;;;;;;;36.60;18.40;;;;;;;2.86;66.76;96333.81;5008454;28;20128;-83
2022/12/18 11:37:50;;;;;;;39.72;19.42;;;;;;;3.98;67.05;96517.66;4996098;28;20053;-83
2022/12/18 11:40:27;;;;;;;36.58;18.88;;;;;;;3.52;67.16;96450.16;5008427;28;20393;-83
2022/12/18 11:43:27;;;;;;;41.80;19.23;;;;;;;3.98;67.17;96513.22;4990081;28;20034;-83